Time;durP1;ratioP1;P1;durP2;ratioP2;P2;SDS_P1;SDS_P2;PMS_P1;PMS_P2;Temp;Humidity;BMP_temperature;BMP_pressure;BME280_temperature;BME280_humidity;BME280_pressure;Samples;Min_cycle;Max_cycle;Signal;HPM_P1;HPM_P2
2020/12/31 00:02:22;;;;;;;48.33;35.10;;;256.00;2073.60;;;;;;5093686;28;20028;-76
2020/12/31 00:04:48;;;;;;;43.08;31.02;;;256.00;2048.00;;;;;;5094940;28;20073;-77
2020/12/31 00:07:14;;;;;;;51.00;35.55;;;256.00;2048.00;;;;;;5093720;28;20028;-77
2020/12/31 00:09:39;;;;;;;52.38;36.05;;;231.30;2073.60;;;;;;5094995;28;20020;-75
2020/12/31 00:12:06;;;;;;;60.63;39.25;;;256.00;2073.60;;;;;;5093333;28;20123;-76
2020/12/31 00:14:33;;;;;;;52.38;36.53;;;231.30;2073.60;;;;;;5093444;28;20085;-76
2020/12/31 00:16:59;;;;;;;53.80;34.83;;;231.10;2099.20;;;;;;5094580;28;20054;-77
2020/12/31 00:19:24;;;;;;;41.58;29.30;;;231.10;2099.20;;;;;;5094720;28;20024;-75
2020/12/31 00:21:51;;;;;;;41.85;26.92;;;231.20;2099.20;;;;;;5094476;28;20103;-76
2020/12/31 00:24:16;;;;;;;43.10;28.48;;;231.20;2099.20;;;;;;5094388;28;20048;-76
2020/12/31 00:26:42;;;;;;;42.50;29.52;;;231.20;2099.20;;;;;;5094467;28;20100;-76
2020/12/31 00:29:08;;;;;;;41.80;31.77;;;231.20;2099.20;;;;;;5094290;28;20020;-76
2020/12/31 00:31:34;;;;;;;46.75;29.48;;;231.20;2099.20;;;;;;5093023;28;20020;-75
2020/12/31 00:34:00;;;;;;;41.55;31.05;;;231.20;2099.20;;;;;;5094334;28;20035;-76
2020/12/31 00:36:26;;;;;;;44.97;33.22;;;231.20;2099.20;;;;;;5094222;28;20020;-75
2020/12/31 00:38:52;;;;;;;40.25;28.35;;;231.20;2099.20;;;;;;5093970;28;20020;-75
2020/12/31 00:41:19;;;;;;;38.10;26.50;;;231.30;2099.20;;;;;;5094246;28;20029;-80
2020/12/31 00:43:46;;;;;;;39.50;28.13;;;231.20;2073.60;;;;;;5093413;28;20047;-80
2020/12/31 00:46:12;;;;;;;38.33;28.65;;;231.30;2099.20;;;;;;5094706;28;20034;-79
2020/12/31 00:48:38;;;;;;;37.03;27.25;;;231.30;2099.20;;;;;;5094518;28;20473;-79
2020/12/31 00:51:04;;;;;;;44.15;29.13;;;231.30;2099.20;;;;;;5093245;28;20026;-78
2020/12/31 00:53:29;;;;;;;41.65;27.75;;;231.20;2099.20;;;;;;5093299;28;20043;-79
2020/12/31 00:55:55;;;;;;;41.03;30.27;;;231.30;2099.20;;;;;;5093790;28;20024;-77
2020/12/31 00:58:21;;;;;;;36.97;27.67;;;231.30;2099.20;;;;;;5093086;28;20072;-78
2020/12/31 01:00:47;;;;;;;33.13;24.95;;;231.30;2099.20;;;;;;5093202;28;20031;-80
2020/12/31 01:03:14;;;;;;;41.40;30.42;;;231.30;2099.20;;;;;;5093040;28;20036;-78
2020/12/31 01:05:39;;;;;;;45.08;31.15;;;231.20;2099.20;;;;;;5093113;28;20023;-78
2020/12/31 01:08:05;;;;;;;44.88;33.20;;;231.30;2099.20;;;;;;5093382;28;20366;-79
2020/12/31 01:10:32;;;;;;;55.78;38.40;;;231.20;2099.20;;;;;;5092928;28;20138;-78
2020/12/31 01:12:57;;;;;;;51.47;38.15;;;231.30;2099.20;;;;;;5093559;28;20028;-78
2020/12/31 01:15:23;;;;;;;58.92;43.33;;;231.20;2099.20;;;;;;5093057;28;20105;-80
2020/12/31 01:17:49;;;;;;;76.03;52.38;;;231.20;2099.20;;;;;;5094080;28;20411;-80
2020/12/31 01:20:15;;;;;;;89.75;64.18;;;231.20;2099.20;;;;;;5092968;28;20035;-81
2020/12/31 01:22:40;;;;;;;100.88;69.43;;;231.20;2099.20;;;;;;5093572;28;20023;-77
2020/12/31 01:25:06;;;;;;;120.38;80.05;;;231.10;2099.20;;;;;;5093383;28;20036;-78
2020/12/31 01:27:32;;;;;;;98.97;69.25;;;231.10;2099.20;;;;;;5092365;28;20146;-77
2020/12/31 01:29:58;;;;;;;119.22;78.32;;;231.10;2099.20;;;;;;5093461;28;20024;-77
2020/12/31 01:32:24;;;;;;;101.55;73.30;;;231.20;2099.20;;;;;;5093625;28;20024;-78
2020/12/31 01:34:51;;;;;;;110.93;74.97;;;231.10;2099.20;;;;;;5093649;28;20464;-78
2020/12/31 01:37:18;;;;;;;92.28;65.03;;;231.10;2099.20;;;;;;5093717;28;20024;-77
2020/12/31 01:39:45;;;;;;;96.85;69.47;;;231.10;2099.20;;;;;;5092585;28;20034;-78
2020/12/31 01:42:11;;;;;;;97.15;70.85;;;231.00;2099.20;;;;;;5093687;28;20531;-78
2020/12/31 01:44:38;;;;;;;96.10;68.78;;;230.90;2124.80;;;;;;5092490;28;20064;-78
2020/12/31 01:47:04;;;;;;;100.00;70.03;;;231.00;2099.20;;;;;;5093700;28;20048;-76
2020/12/31 01:49:32;;;;;;;99.28;71.82;;;231.00;2099.20;;;;;;5092219;28;20035;-77
2020/12/31 01:51:59;;;;;;;94.68;69.28;;;231.00;2099.20;;;;;;5092330;28;20073;-79
2020/12/31 01:54:26;;;;;;;94.47;65.95;;;231.00;2099.20;;;;;;5092353;28;20089;-77
2020/12/31 01:56:58;;;;;;;102.80;72.97;;;231.00;2099.20;;;;;;5093492;28;20024;-77
2020/12/31 01:59:25;;;;;;;100.28;73.22;;;231.00;2099.20;;;;;;5092311;28;20112;-78
2020/12/31 02:01:51;;;;;;;103.10;72.18;;;231.00;2099.20;;;;;;5093760;28;20024;-77
2020/12/31 02:04:18;;;;;;;110.53;77.43;;;230.90;2099.20;;;;;;5093149;28;20499;-76
2020/12/31 02:06:45;;;;;;;114.85;71.70;;;230.90;2099.20;;;;;;5096008;28;20357;-77
2020/12/31 02:09:11;;;;;;;93.75;67.60;;;230.90;2099.20;;;;;;5096184;28;20473;-77
2020/12/31 02:11:37;;;;;;;80.68;56.72;;;230.90;2099.20;;;;;;5096069;28;20024;-77
2020/12/31 02:14:04;;;;;;;73.68;52.05;;;230.80;2099.20;;;;;;5096964;28;20035;-77
2020/12/31 02:16:36;;;;;;;76.45;52.75;;;230.80;2099.20;;;;;;5095700;28;20020;-80
2020/12/31 02:19:04;;;;;;;55.10;36.13;;;230.80;2099.20;;;;;;5096912;28;20108;-78
2020/12/31 02:21:32;;;;;;;43.97;30.75;;;230.80;2099.20;;;;;;5096275;28;20046;-79
2020/12/31 02:24:00;;;;;;;34.85;25.27;;;230.80;2099.20;;;;;;5095586;28;20457;-81
2020/12/31 02:26:28;;;;;;;31.17;22.67;;;230.80;2099.20;;;;;;5096163;28;20031;-79
2020/12/31 02:28:55;;;;;;;28.58;20.58;;;230.80;2099.20;;;;;;5097242;28;20476;-81
2020/12/31 02:31:22;;;;;;;37.08;24.88;;;230.70;2099.20;;;;;;5096895;28;20028;-82
2020/12/31 02:33:50;;;;;;;38.35;25.23;;;230.70;2099.20;;;;;;5097299;28;20020;-82
2020/12/31 02:36:17;;;;;;;50.72;32.97;;;230.70;2099.20;;;;;;5096958;28;20024;-84
2020/12/31 02:38:44;;;;;;;46.42;33.10;;;230.80;2099.20;;;;;;5097303;28;20468;-83
2020/12/31 02:41:11;;;;;;;53.70;34.42;;;230.80;2099.20;;;;;;5095739;28;20472;-77
2020/12/31 02:43:37;;;;;;;42.97;30.35;;;230.70;2099.20;;;;;;5096536;28;20105;-79
2020/12/31 02:46:04;;;;;;;27.25;19.20;;;230.70;2124.80;;;;;;5096740;28;20027;-79
2020/12/31 02:48:30;;;;;;;35.05;23.42;;;230.70;2124.80;;;;;;5095669;28;20385;-78
2020/12/31 02:50:56;;;;;;;46.97;31.60;;;230.60;2124.80;;;;;;5096046;28;20081;-78
2020/12/31 02:53:22;;;;;;;46.22;31.38;;;230.70;2124.80;;;;;;5095986;28;20426;-78
2020/12/31 02:55:47;;;;;;;47.95;29.17;;;230.70;2099.20;;;;;;5095554;28;20110;-82
2020/12/31 02:58:13;;;;;;;42.00;28.30;;;230.60;2124.80;;;;;;5096565;28;20024;-80
2020/12/31 03:00:39;;;;;;;39.58;28.83;;;230.40;2150.40;;;;;;5095463;28;20081;-80
2020/12/31 03:03:05;;;;;;;35.55;25.45;;;230.40;2150.40;;;;;;5096418;28;20028;-76
2020/12/31 03:05:31;;;;;;;37.55;26.27;;;230.40;2150.40;;;;;;5096486;28;20423;-77
2020/12/31 03:07:56;;;;;;;37.53;27.48;;;230.50;2124.80;;;;;;5096277;28;20070;-80
2020/12/31 03:10:22;;;;;;;34.83;25.45;;;230.60;2124.80;;;;;;5094981;28;20036;-76
2020/12/31 03:12:48;;;;;;;44.42;30.83;;;230.60;2124.80;;;;;;5095786;28;20027;-78
2020/12/31 03:15:17;;;;;;;47.28;32.67;;;230.40;2124.80;;;;;;5094939;28;20028;-78
2020/12/31 03:17:42;;;;;;;44.15;27.90;;;205.60;2150.40;;;;;;5095641;28;20107;-78
2020/12/31 03:20:08;;;;;;;42.13;24.70;;;205.60;2176.00;;;;;;5094977;28;20059;-79
2020/12/31 03:22:34;;;;;;;34.88;24.25;;;205.70;2176.00;;;;;;5096239;28;20092;-81
2020/12/31 03:25:00;;;;;;;27.70;21.20;;;230.40;2150.40;;;;;;5096412;28;20039;-83
2020/12/31 03:27:29;;;;;;;28.95;18.52;;;205.60;2176.00;;;;;;5095955;28;20028;-83
2020/12/31 03:29:54;;;;;;;52.95;29.13;;;205.60;2176.00;;;;;;5096013;28;20028;-83
2020/12/31 03:32:20;;;;;;;42.63;26.92;;;205.70;2150.40;;;;;;5096152;28;20020;-83
2020/12/31 03:34:46;;;;;;;32.40;21.35;;;205.60;2176.00;;;;;;5096032;28;20028;-80
2020/12/31 03:37:12;;;;;;;31.95;23.42;;;205.70;2150.40;;;;;;5096588;28;20115;-82
2020/12/31 03:39:38;;;;;;;28.00;21.73;;;230.40;2150.40;;;;;;5096115;28;20496;-83
2020/12/31 03:42:04;;;;;;;38.08;26.45;;;230.50;2150.40;;;;;;5095738;28;20024;-82
2020/12/31 03:44:30;;;;;;;34.47;23.90;;;230.60;2150.40;;;;;;5095843;28;20046;-83
2020/12/31 03:46:56;;;;;;;28.33;19.85;;;230.60;2124.80;;;;;;5095726;28;20012;-81
2020/12/31 03:49:22;;;;;;;32.40;24.27;;;230.60;2124.80;;;;;;5095787;28;20038;-82
2020/12/31 03:51:48;;;;;;;51.85;28.67;;;230.70;2124.80;;;;;;5095641;28;20020;-88
2020/12/31 03:54:14;;;;;;;51.88;33.70;;;230.70;2124.80;;;;;;5095594;28;20536;-82
2020/12/31 03:56:40;;;;;;;79.10;54.72;;;230.70;2124.80;;;;;;5094429;28;20020;-80
2020/12/31 03:59:06;;;;;;;69.88;46.15;;;230.70;2124.80;;;;;;5095164;28;20028;-80
2020/12/31 04:01:32;;;;;;;83.60;57.13;;;230.80;2124.80;;;;;;5095225;28;20028;-79
2020/12/31 04:03:59;;;;;;;71.38;50.90;;;230.70;2124.80;;;;;;5095343;28;20114;-80
2020/12/31 04:06:25;;;;;;;49.10;37.50;;;230.70;2124.80;;;;;;5095191;28;20138;-78
2020/12/31 04:08:51;;;;;;;61.30;39.38;;;230.70;2124.80;;;;;;5095009;28;20032;-77
2020/12/31 04:11:17;;;;;;;51.05;33.22;;;230.70;2124.80;;;;;;5095143;28;20468;-81
2020/12/31 04:13:43;;;;;;;36.30;23.48;;;230.70;2124.80;;;;;;5094947;28;20043;-80
2020/12/31 04:16:08;;;;;;;38.10;24.35;;;230.70;2124.80;;;;;;5094991;28;20021;-80
2020/12/31 04:18:34;;;;;;;25.63;19.30;;;230.70;2124.80;;;;;;5095131;28;20031;-80
2020/12/31 04:21:00;;;;;;;33.13;21.95;;;230.80;2124.80;;;;;;5095100;28;20085;-81
2020/12/31 04:23:25;;;;;;;29.13;19.67;;;230.80;2099.20;;;;;;5094801;28;20046;-81
2020/12/31 04:25:51;;;;;;;30.35;21.25;;;230.80;2099.20;;;;;;5095104;28;20376;-80
2020/12/31 04:28:17;;;;;;;30.08;20.80;;;230.80;2099.20;;;;;;5094214;28;20020;-79
2020/12/31 04:30:47;;;;;;;29.35;20.45;;;230.80;2124.80;;;;;;5093584;28;20081;-79
2020/12/31 04:33:14;;;;;;;24.85;18.75;;;230.80;2099.20;;;;;;5093454;28;20380;-81
2020/12/31 04:35:40;;;;;;;24.35;18.10;;;230.80;2099.20;;;;;;5093376;28;20024;-81
2020/12/31 04:38:07;;;;;;;22.42;15.55;;;230.80;2099.20;;;;;;5094045;28;20022;-76
2020/12/31 04:40:33;;;;;;;19.67;13.88;;;230.80;2099.20;;;;;;5094252;28;20372;-76
2020/12/31 04:49:48;;;;;;;24.27;15.88;;;230.70;2124.80;;;;;;5094717;28;20059;-84
2020/12/31 04:52:14;;;;;;;21.98;16.05;;;230.70;2124.80;;;;;;5094734;28;20048;-83
2020/12/31 04:54:40;;;;;;;26.13;19.38;;;230.80;2124.80;;;;;;5094862;28;20063;-84
2020/12/31 04:57:06;;;;;;;22.63;17.98;;;230.80;2124.80;;;;;;5094460;28;20028;-76
2020/12/31 04:59:33;;;;;;;20.25;15.05;;;230.70;2124.80;;;;;;5093679;28;20381;-76
2020/12/31 05:01:58;;;;;;;18.58;13.15;;;230.80;2124.80;;;;;;5093188;28;20027;-77
2020/12/31 05:04:24;;;;;;;24.40;17.35;;;230.80;2124.80;;;;;;5093703;28;20122;-75
2020/12/31 05:06:53;;;;;;;23.38;17.08;;;230.80;2124.80;;;;;;5093349;28;20043;-75
2020/12/31 05:09:22;;;;;;;27.02;17.40;;;230.80;2124.80;;;;;;5093732;28;20070;-76
2020/12/31 05:11:53;;;;;;;27.77;19.40;;;230.70;2124.80;;;;;;5086929;28;20494;-80
2020/12/31 05:14:41;;;;;;;26.23;21.00;;;230.80;2124.80;;;;;;5077203;28;20024;-81
2020/12/31 05:17:17;;;;;;;29.40;20.80;;;230.80;2124.80;;;;;;5072812;28;20032;-81
2020/12/31 05:19:44;;;;;;;31.95;23.77;;;230.80;2124.80;;;;;;5073778;28;20021;-83
2020/12/31 05:22:19;;;;;;;26.45;19.73;;;230.80;2124.80;;;;;;5074143;28;20090;-83
2020/12/31 05:24:52;;;;;;;27.60;21.05;;;230.80;2124.80;;;;;;5073865;28;20373;-83
2020/12/31 05:27:23;;;;;;;25.98;20.77;;;230.80;2124.80;;;;;;5073845;28;20549;-76
2020/12/31 05:29:56;;;;;;;31.65;23.58;;;230.80;2124.80;;;;;;5073132;28;20472;-76
2020/12/31 05:32:23;;;;;;;26.60;22.80;;;230.80;2124.80;;;;;;5073285;28;20032;-76
2020/12/31 05:34:49;;;;;;;27.20;23.73;;;230.80;2124.80;;;;;;5073074;28;20426;-76
2020/12/31 05:37:16;;;;;;;23.30;19.20;;;230.80;2124.80;;;;;;5091146;28;20028;-77
2020/12/31 05:40:05;;;;;;;33.10;23.40;;;230.80;2124.80;;;;;;5093990;28;20389;-76
2020/12/31 05:42:32;;;;;;;43.40;26.70;;;230.70;2124.80;;;;;;5055141;28;20074;-82
2020/12/31 05:45:09;;;;;;;34.22;26.27;;;230.70;2124.80;;;;;;5055891;28;20045;-81
2020/12/31 05:47:43;;;;;;;89.50;57.50;;;230.60;2150.40;;;;;;5055792;28;20123;-80
2020/12/31 05:50:19;;;;;;;139.07;87.57;;;230.50;2150.40;;;;;;5055629;28;20200;-79
2020/12/31 05:52:45;;;;;;;122.82;77.97;;;230.40;2176.00;;;;;;5038807;28;20120;-81
2020/12/31 05:55:11;;;;;;;90.72;57.80;;;230.50;2150.40;;;;;;5055570;28;20139;-82
2020/12/31 05:57:48;;;;;;;80.35;54.25;;;230.50;2150.40;;;;;;5055925;28;20116;-81
2020/12/31 06:00:21;;;;;;;59.60;41.70;;;230.60;2150.40;;;;;;5038518;28;20116;-82
2020/12/31 06:02:52;;;;;;;51.90;36.35;;;230.50;2150.40;;;;;;5055728;28;20029;-82
2020/12/31 06:05:19;;;;;;;59.35;42.55;;;230.50;2150.40;;;;;;5054675;28;20062;-79
2020/12/31 06:07:47;;;;;;;71.63;46.60;;;230.60;2150.40;;;;;;5055267;28;20037;-79
2020/12/31 06:10:17;;;;;;;61.17;44.35;;;230.60;2150.40;;;;;;5054733;28;20032;-76
2020/12/31 06:13:00;;;;;;;74.88;55.53;;;230.60;2124.80;;;;;;5055217;28;20585;-77
2020/12/31 06:15:33;;;;;;;84.57;61.05;;;230.50;2124.80;;;;;;5054030;28;20056;-76
2020/12/31 06:18:03;;;;;;;125.47;95.85;;;230.40;2124.80;;;;;;5043593;28;20562;-80
2020/12/31 06:20:36;;;;;;;140.82;105.75;;;230.40;2150.40;;;;;;5072563;28;20374;-81
2020/12/31 06:23:04;;;;;;;131.52;98.15;;;230.40;2150.40;;;;;;5077033;28;20044;-83
2020/12/31 06:25:39;;;;;;;142.15;103.68;;;230.40;2124.80;;;;;;5086328;28;20089;-76
2020/12/31 06:28:06;;;;;;;105.95;83.70;;;230.40;2124.80;;;;;;5097019;28;20043;-80
2020/12/31 06:30:33;;;;;;;115.53;88.32;;;230.40;2124.80;;;;;;5097057;28;20017;-79
2020/12/31 06:33:25;;;;;;;101.80;75.40;;;205.70;2150.40;;;;;;5096604;28;20476;-77
2020/12/31 06:36:01;;;;;;;95.20;69.55;;;230.40;2150.40;;;;;;5094398;28;20059;-80
2020/12/31 06:38:38;;;;;;;116.10;85.32;;;230.40;2150.40;;;;;;5096813;28;20080;-79
2020/12/31 06:41:05;;;;;;;131.88;100.22;;;205.70;2124.80;;;;;;5095289;28;20510;-80
2020/12/31 06:43:38;;;;;;;210.48;157.00;;;205.70;2124.80;;;;;;5096830;28;20032;-81
2020/12/31 06:46:18;;;;;;;230.73;184.57;;;230.40;2124.80;;;;;;5094785;28;20392;-78
2020/12/31 06:48:50;;;;;;;134.77;107.50;;;230.40;2124.80;;;;;;5096633;28;20031;-77
2020/12/31 06:51:24;;;;;;;114.47;85.78;;;230.50;2124.80;;;;;;5095744;28;20035;-78
2020/12/31 06:53:50;;;;;;;103.80;75.25;;;230.40;2124.80;;;;;;5095312;28;20354;-81
2020/12/31 06:56:15;;;;;;;124.55;91.15;;;230.50;2124.80;;;;;;5095166;28;20110;-78
2020/12/31 06:58:43;;;;;;;121.05;89.32;;;230.50;2124.80;;;;;;5093863;28;20107;-79
2020/12/31 07:01:23;;;;;;;123.07;92.93;;;230.50;2124.80;;;;;;5082366;28;20017;-82
2020/12/31 07:03:49;;;;;;;125.25;90.18;;;230.50;2099.20;;;;;;5083595;28;20110;-79
2020/12/31 07:06:31;;;;;;;113.15;85.63;;;230.50;2099.20;;;;;;5093992;28;20036;-79
2020/12/31 07:09:00;;;;;;;121.40;91.03;;;230.50;2124.80;;;;;;5093761;28;20047;-81
2020/12/31 07:11:29;;;;;;;121.80;88.72;;;230.50;2099.20;;;;;;5092361;28;20062;-82
2020/12/31 07:13:55;;;;;;;124.05;94.13;;;230.40;2124.80;;;;;;5090260;28;20031;-79
2020/12/31 07:16:40;;;;;;;115.10;89.47;;;230.50;2124.80;;;;;;5075064;28;20029;-80
2020/12/31 07:19:06;;;;;;;111.25;82.60;;;230.50;2124.80;;;;;;5073460;28;20485;-79
2020/12/31 07:21:36;;;;;;;119.57;91.63;;;230.50;2124.80;;;;;;5091910;28;20032;-79
2020/12/31 07:24:25;;;;;;;146.73;111.10;;;230.50;2124.80;;;;;;5095064;28;20101;-79
2020/12/31 07:26:55;;;;;;;152.77;111.28;;;230.50;2124.80;;;;;;5093978;28;20380;-80
2020/12/31 07:29:32;;;;;;;119.57;95.30;;;230.50;2124.80;;;;;;5093944;28;20024;-78
2020/12/31 07:32:01;;;;;;;101.88;79.72;;;230.50;2124.80;;;;;;5093719;28;20020;-80
2020/12/31 07:34:31;;;;;;;115.53;91.57;;;230.50;2099.20;;;;;;5079380;28;20103;-79
2020/12/31 07:37:03;;;;;;;184.77;136.98;;;230.60;2099.20;;;;;;5073416;28;20055;-79
2020/12/31 07:39:30;;;;;;;151.00;105.25;;;230.60;2099.20;;;;;;5074371;28;20020;-78
2020/12/31 07:42:17;;;;;;;99.45;70.78;;;230.70;2099.20;;;;;;5073673;28;20029;-79
2020/12/31 07:44:55;;;;;;;105.90;81.20;;;230.80;2099.20;;;;;;5073007;28;20071;-78
2020/12/31 07:47:22;;;;;;;97.70;71.88;;;231.00;2073.60;;;;;;5074183;28;20024;-76
2020/12/31 07:49:53;;;;;;;87.68;67.13;;;231.00;2073.60;;;;;;5073823;28;20031;-78
2020/12/31 07:52:19;;;;;;;83.95;64.57;;;231.10;2073.60;;;;;;5073336;28;20020;-78
2020/12/31 07:54:46;;;;;;;90.45;65.93;;;231.10;2099.20;;;;;;5071891;28;20051;-77
2020/12/31 07:57:13;;;;;;;99.45;67.68;;;231.20;2073.60;;;;;;5073458;28;20043;-78
2020/12/31 07:59:46;;;;;;;87.97;60.78;;;231.20;2073.60;;;;;;5073367;28;20016;-79
2020/12/31 08:02:16;;;;;;;106.45;73.55;;;231.20;2073.60;;;;;;5072780;28;20063;-79
2020/12/31 08:04:42;;;;;;;94.43;66.25;;;231.30;2073.60;;;;;;5070521;28;20048;-78
2020/12/31 08:07:16;;;;;;;82.93;59.03;;;231.20;2073.60;;;;;;5072961;28;20021;-78
2020/12/31 08:09:42;;;;;;;;;;;231.20;2073.60;;;;;;5072093;28;20043;-78
2020/12/31 08:12:11;;;;;;;77.30;56.92;;;231.20;2073.60;;;;;;5072218;28;19916;-79
2020/12/31 08:14:45;;;;;;;61.75;50.85;;;231.20;2099.20;;;;;;5071721;28;20401;-78
2020/12/31 08:17:12;;;;;;;58.97;47.08;;;231.20;2099.20;;;;;;5072002;28;20021;-79
2020/12/31 08:19:39;;;;;;;62.33;48.22;;;231.20;2099.20;;;;;;5071768;28;20481;-78
2020/12/31 08:22:28;;;;;;;62.78;49.40;;;231.20;2099.20;;;;;;5081478;28;20093;-77
2020/12/31 08:25:11;;;;;;;68.28;49.60;;;231.20;2099.20;;;;;;5091189;28;20055;-78
2020/12/31 08:27:39;;;;;;;90.37;68.93;;;231.30;2099.20;;;;;;5092041;28;20066;-78
2020/12/31 08:30:10;;;;;;;78.78;58.20;;;231.30;2099.20;;;;;;5090618;28;20522;-78
2020/12/31 08:32:53;;;;;;;71.97;45.15;;;256.00;2099.20;;;;;;5091492;28;20036;-78
2020/12/31 08:35:39;;;;;;;80.53;57.17;;;256.00;2099.20;;;;;;5091300;28;20127;-78
2020/12/31 08:38:15;;;;;;;57.30;45.97;;;256.00;2099.20;;;;;;5091593;28;20066;-79
2020/12/31 08:40:46;;;;;;;63.58;46.83;;;256.10;2073.60;;;;;;5092528;28;20127;-78
2020/12/31 08:43:32;;;;;;;40.38;31.38;;;256.30;2073.60;;;;;;5092280;28;20058;-77
2020/12/31 08:45:59;;;;;;;39.70;30.15;;;256.60;2048.00;;;;;;5092386;28;20032;-77
2020/12/31 08:48:27;;;;;;;49.35;35.78;;;256.90;2022.40;;;;;;5092494;28;20051;-77
2020/12/31 08:51:12;;;;;;;54.67;43.75;;;281.60;2022.40;;;;;;5091102;28;20032;-78
2020/12/31 08:53:52;;;;;;;56.97;45.80;;;281.60;1996.80;;;;;;5090976;28;20110;-78
2020/12/31 08:56:19;;;;;;;70.53;52.90;;;281.70;2022.40;;;;;;5091418;28;20035;-78
2020/12/31 08:58:45;;;;;;;76.35;56.42;;;281.80;2022.40;;;;;;5091093;28;20044;-79
2020/12/31 09:01:24;;;;;;;80.88;65.35;;;281.80;1996.80;;;;;;5091876;28;20109;-78
2020/12/31 09:04:04;;;;;;;82.25;63.97;;;281.80;2022.40;;;;;;5089762;28;20040;-78
2020/12/31 09:06:30;;;;;;;82.78;66.10;;;281.70;1996.80;;;;;;5090440;28;20388;-77
2020/12/31 09:08:57;;;;;;;67.28;52.70;;;281.70;2048.00;;;;;;5092215;28;20039;-80
2020/12/31 09:11:29;;;;;;;66.72;52.90;;;281.60;2022.40;;;;;;5092131;28;20526;-79
2020/12/31 09:14:06;;;;;;;64.95;51.85;;;281.60;1996.80;;;;;;5091776;28;20028;-78
2020/12/31 09:16:32;;;;;;;227.75;114.47;;;281.60;1996.80;;;;;;5091475;28;20376;-77
2020/12/31 09:19:00;;;;;;;110.93;80.53;;;256.90;1996.80;;;;;;5091073;28;20020;-78
2020/12/31 09:21:29;;;;;;;149.07;96.47;;;256.90;1996.80;;;;;;5091413;28;20027;-78
2020/12/31 09:23:56;;;;;;;150.85;90.93;;;256.70;2022.40;;;;;;5090948;28;20054;-75
2020/12/31 09:26:27;;;;;;;108.60;80.78;;;256.70;2022.40;;;;;;5091203;28;20131;-76
2020/12/31 09:28:53;;;;;;;94.65;69.07;;;256.80;1996.80;;;;;;5091453;28;20026;-76
2020/12/31 09:31:22;;;;;;;78.45;65.05;;;256.60;2048.00;;;;;;5091281;28;20020;-77
2020/12/31 09:33:51;;;;;;;90.20;69.63;;;256.60;2048.00;;;;;;5091163;28;20521;-77
2020/12/31 09:36:22;;;;;;;113.35;89.80;;;256.80;2048.00;;;;;;5091577;28;20052;-77
2020/12/31 09:38:47;;;;;;;96.57;77.78;;;281.60;2048.00;;;;;;5091344;28;20028;-77
2020/12/31 09:41:13;;;;;;;141.48;111.47;;;281.60;2022.40;;;;;;5091061;28;20024;-77
2020/12/31 09:43:39;;;;;;;141.38;107.65;;;281.70;2048.00;;;;;;5090950;28;20028;-76
2020/12/31 09:46:05;;;;;;;97.10;73.82;;;281.70;2048.00;;;;;;5091382;28;20074;-76
2020/12/31 09:48:31;;;;;;;110.40;86.93;;;281.70;2022.40;;;;;;5091228;28;20024;-78
2020/12/31 09:50:56;;;;;;;82.57;63.20;;;281.80;2022.40;;;;;;5091008;28;20373;-77
2020/12/31 09:53:22;;;;;;;86.07;66.60;;;281.90;2022.40;;;;;;5091072;28;20431;-76
2020/12/31 09:55:48;;;;;;;116.47;84.80;;;281.80;2022.40;;;;;;5091081;28;20484;-78
2020/12/31 09:58:13;;;;;;;63.58;48.03;;;281.90;2022.40;;;;;;5091510;28;20425;-76
2020/12/31 10:00:39;;;;;;;54.42;44.58;;;282.00;1996.80;;;;;;5090746;28;20121;-76
2020/12/31 10:03:05;;;;;;;57.03;42.92;;;282.10;1996.80;;;;;;5090660;28;20029;-77
2020/12/31 10:05:31;;;;;;;49.25;40.33;;;282.30;1945.60;;;;;;5091016;28;20089;-76
2020/12/31 10:07:56;;;;;;;73.03;54.40;;;282.50;1971.20;;;;;;5091144;28;20082;-75
2020/12/31 10:10:22;;;;;;;47.72;36.28;;;307.50;1945.60;;;;;;5090395;28;20035;-76
2020/12/31 10:12:48;;;;;;;47.70;39.33;;;308.10;1894.40;;;;;;5091107;28;20024;-77
2020/12/31 10:15:14;;;;;;;46.95;36.75;;;333.10;1868.80;;;;;;5089592;28;20434;-76
2020/12/31 10:17:40;;;;;;;63.75;48.97;;;333.40;1843.20;;;;;;5091126;28;20028;-76
2020/12/31 10:20:05;;;;;;;77.80;70.10;;;333.30;1817.60;;;;;;5090846;28;20039;-75
2020/12/31 10:22:32;;;;;;;49.13;39.35;;;333.40;1817.60;;;;;;5090974;28;20178;-77
2020/12/31 10:24:58;;;;;;;52.10;41.83;;;333.40;1792.00;;;;;;5090508;28;20131;-76
2020/12/31 10:27:23;;;;;;;37.38;30.85;;;333.40;1792.00;;;;;;5092411;28;20030;-77
2020/12/31 10:29:49;;;;;;;42.35;31.25;;;333.60;1766.40;;;;;;5094597;28;20392;-76
2020/12/31 10:32:15;;;;;;;41.70;28.88;;;333.70;1740.80;;;;;;5094353;28;20028;-77
2020/12/31 10:34:41;;;;;;;55.90;41.83;;;333.70;1766.40;;;;;;5094248;28;20499;-76
2020/12/31 10:37:07;;;;;;;39.40;32.13;;;358.40;1740.80;;;;;;5094638;28;20028;-76
2020/12/31 10:39:33;;;;;;;30.88;25.25;;;358.40;1715.20;;;;;;5094381;28;20035;-77
2020/12/31 10:41:58;;;;;;;36.63;28.90;;;333.60;1715.20;;;;;;5093979;28;20024;-75
2020/12/31 10:44:24;;;;;;;35.30;29.33;;;358.40;1740.80;;;;;;5094086;28;20028;-77
2020/12/31 10:46:50;;;;;;;40.58;30.30;;;333.70;1715.20;;;;;;5094311;28;20460;-76
2020/12/31 10:49:16;;;;;;;43.83;32.65;;;358.40;1740.80;;;;;;5094251;28;20032;-76
2020/12/31 10:51:41;;;;;;;39.10;30.35;;;358.50;1740.80;;;;;;5094049;28;20024;-77
2020/12/31 10:54:08;;;;;;;29.80;21.75;;;358.50;1740.80;;;;;;5093995;28;20490;-76
2020/12/31 10:56:35;;;;;;;31.73;24.50;;;358.40;1689.60;;;;;;5093948;28;20065;-76
2020/12/31 10:59:01;;;;;;;37.08;28.27;;;358.50;1689.60;;;;;;5094014;28;20027;-76
2020/12/31 11:01:27;;;;;;;33.53;24.58;;;358.60;1689.60;;;;;;5094016;28;20056;-76
2020/12/31 11:03:53;;;;;;;30.77;22.05;;;358.40;1689.60;;;;;;5093711;28;20074;-77
2020/12/31 11:06:24;;;;;;;28.13;22.02;;;358.40;1689.60;;;;;;5093929;28;20024;-77
2020/12/31 11:08:51;;;;;;;31.27;25.30;;;358.50;1664.00;;;;;;5094240;28;20107;-74
2020/12/31 11:11:22;;;;;;;31.48;25.40;;;333.70;1664.00;;;;;;5093566;28;20106;-77
2020/12/31 11:13:48;;;;;;;37.00;29.13;;;333.40;1689.60;;;;;;5094517;28;20027;-79
2020/12/31 11:16:14;;;;;;;35.33;29.75;;;333.10;1689.60;;;;;;5094859;28;20020;-78
2020/12/31 11:18:43;;;;;;;40.00;30.58;;;333.00;1715.20;;;;;;5093488;28;20028;-76
2020/12/31 11:21:10;;;;;;;41.80;33.70;;;332.90;1715.20;;;;;;5093051;28;20027;-77
2020/12/31 11:23:36;;;;;;;45.33;33.80;;;333.00;1740.80;;;;;;5093291;28;20113;-73
2020/12/31 11:26:08;;;;;;;48.15;36.47;;;332.90;1766.40;;;;;;5092838;28;20040;-78
2020/12/31 11:28:34;;;;;;;50.67;39.17;;;332.90;1766.40;;;;;;5093856;28;20035;-77
2020/12/31 11:30:59;;;;;;;68.57;56.30;;;332.90;1740.80;;;;;;5095576;28;20045;-79
2020/12/31 11:33:25;;;;;;;46.55;37.72;;;332.80;1766.40;;;;;;5095579;28;20024;-79
2020/12/31 11:35:51;;;;;;;45.65;33.28;;;332.80;1766.40;;;;;;5095495;28;20085;-79
2020/12/31 11:38:17;;;;;;;59.88;48.25;;;332.80;1766.40;;;;;;5095273;28;20464;-79
2020/12/31 11:40:43;;;;;;;52.30;41.85;;;332.80;1740.80;;;;;;5095381;28;20012;-79
2020/12/31 11:43:09;;;;;;;82.25;62.08;;;332.90;1766.40;;;;;;5095533;28;20483;-79
2020/12/31 11:45:35;;;;;;;48.53;36.33;;;333.00;1766.40;;;;;;5095278;28;20032;-79
2020/12/31 11:48:00;;;;;;;52.10;38.50;;;332.90;1766.40;;;;;;5095460;28;20062;-79
2020/12/31 11:50:26;;;;;;;45.67;34.40;;;332.80;1766.40;;;;;;5095452;28;20024;-79
2020/12/31 11:52:52;;;;;;;56.53;38.72;;;332.80;1766.40;;;;;;5095098;28;20090;-79
2020/12/31 11:55:19;;;;;;;49.88;35.08;;;332.80;1766.40;;;;;;5094961;28;20051;-79
2020/12/31 11:57:44;;;;;;;50.65;36.08;;;308.10;1740.80;;;;;;5095336;28;20483;-78
2020/12/31 12:00:11;;;;;;;49.53;38.00;;;332.80;1792.00;;;;;;5095071;28;20029;-79
2020/12/31 12:02:36;;;;;;;60.80;41.80;;;332.80;1766.40;;;;;;5095114;28;20056;-79
2020/12/31 12:05:03;;;;;;;76.43;52.15;;;332.90;1766.40;;;;;;5095260;28;20070;-79
2020/12/31 12:07:29;;;;;;;37.92;30.95;;;332.90;1792.00;;;;;;5094900;28;20020;-79
2020/12/31 12:09:54;;;;;;;49.33;37.72;;;333.00;1740.80;;;;;;5095036;28;20030;-78